sensor_id;sensor_type;location;lat;lon;timestamp;pressure;altitude;pressure_sealevel;temperature;humidity
48774;BME280;34576;0.000;0.000;2023-03-03T00:00:41;96784.69;;;16.02;63.73
48774;BME280;34576;0.000;0.000;2023-03-03T00:07:44;96786.50;;;16.01;64.38
48774;BME280;34576;0.000;0.000;2023-03-03T00:14:45;96795.78;;;15.99;65.10
48774;BME280;34576;0.000;0.000;2023-03-03T00:21:46;96796.34;;;16.01;64.60
48774;BME280;34576;0.000;0.000;2023-03-03T00:28:47;96799.00;;;16.01;64.63
48774;BME280;34576;0.000;0.000;2023-03-03T00:35:48;96799.00;;;16.01;64.82
48774;BME280;34576;0.000;0.000;2023-03-03T00:42:50;96791.03;;;16.06;64.45
48774;BME280;34576;0.000;0.000;2023-03-03T00:49:51;96797.41;;;16.05;64.64
48774;BME280;34576;0.000;0.000;2023-03-03T00:56:52;96805.91;;;16.07;64.82
48774;BME280;34576;0.000;0.000;2023-03-03T01:03:53;96812.03;;;16.08;64.74
48774;BME280;34576;0.000;0.000;2023-03-03T01:10:55;96820.25;;;16.11;64.68
48774;BME280;34576;0.000;0.000;2023-03-03T01:17:56;96803.03;;;16.14;64.94
48774;BME280;34576;0.000;0.000;2023-03-03T01:24:56;96803.56;;;16.16;64.76
48774;BME280;34576;0.000;0.000;2023-03-03T01:31:56;96801.97;;;16.15;64.87
48774;BME280;34576;0.000;0.000;2023-03-03T01:38:56;96807.53;;;16.13;64.91
48774;BME280;34576;0.000;0.000;2023-03-03T01:52:58;96799.59;;;16.18;64.79
48774;BME280;34576;0.000;0.000;2023-03-03T01:59:59;96793.72;;;16.11;64.80
48774;BME280;34576;0.000;0.000;2023-03-03T02:07:01;96779.66;;;16.11;64.69
48774;BME280;34576;0.000;0.000;2023-03-03T02:14:05;96782.59;;;16.09;64.62
48774;BME280;34576;0.000;0.000;2023-03-03T02:21:09;96785.78;;;16.16;64.21
48774;BME280;34576;0.000;0.000;2023-03-03T02:28:10;96777.28;;;16.14;64.38
48774;BME280;34576;0.000;0.000;2023-03-03T02:35:33;96775.19;;;16.16;64.11
48774;BME280;34576;0.000;0.000;2023-03-03T02:42:34;96769.31;;;16.14;64.16
48774;BME280;34576;0.000;0.000;2023-03-03T02:49:34;96769.34;;;16.19;63.66
48774;BME280;34576;0.000;0.000;2023-03-03T02:56:36;96764.03;;;16.19;63.88
48774;BME280;34576;0.000;0.000;2023-03-03T03:03:37;96762.69;;;16.17;64.42
48774;BME280;34576;0.000;0.000;2023-03-03T03:10:39;96751.28;;;16.16;64.61
48774;BME280;34576;0.000;0.000;2023-03-03T03:17:39;96748.09;;;16.19;64.49
48774;BME280;34576;0.000;0.000;2023-03-03T03:24:40;96747.56;;;16.22;64.04
48774;BME280;34576;0.000;0.000;2023-03-03T03:31:42;96762.69;;;16.17;64.10
48774;BME280;34576;0.000;0.000;2023-03-03T03:38:43;96771.97;;;16.14;65.03
48774;BME280;34576;0.000;0.000;2023-03-03T03:45:44;96775.19;;;16.16;65.28
48774;BME280;34576;0.000;0.000;2023-03-03T03:52:46;96780.75;;;16.15;64.90
48774;BME280;34576;0.000;0.000;2023-03-03T03:59:48;96784.97;;;16.16;65.67
48774;BME280;34576;0.000;0.000;2023-03-03T04:06:49;96776.75;;;16.17;65.43
48774;BME280;34576;0.000;0.000;2023-03-03T04:13:49;96785.75;;;16.11;66.03
48774;BME280;34576;0.000;0.000;2023-03-03T04:20:50;96790.03;;;16.12;66.02
48774;BME280;34576;0.000;0.000;2023-03-03T04:27:52;96800.63;;;16.17;65.80
48774;BME280;34576;0.000;0.000;2023-03-03T04:34:55;96804.63;;;16.15;65.20
48774;BME280;34576;0.000;0.000;2023-03-03T04:41:55;96801.41;;;16.13;65.13
48774;BME280;34576;0.000;0.000;2023-03-03T04:48:56;96795.59;;;16.16;64.92
48774;BME280;34576;0.000;0.000;2023-03-03T04:55:59;96800.09;;;16.15;65.09
48774;BME280;34576;0.000;0.000;2023-03-03T05:02:59;96800.38;;;16.14;65.58
48774;BME280;34576;0.000;0.000;2023-03-03T05:10:00;96806.72;;;16.13;65.76
48774;BME280;34576;0.000;0.000;2023-03-03T05:17:01;96809.41;;;16.18;66.15
48774;BME280;34576;0.000;0.000;2023-03-03T05:24:02;96809.16;;;16.19;66.12
48774;BME280;34576;0.000;0.000;2023-03-03T05:31:02;96808.84;;;16.16;66.31
48774;BME280;34576;0.000;0.000;2023-03-03T05:38:02;96801.16;;;16.14;64.86
48774;BME280;34576;0.000;0.000;2023-03-03T05:45:03;96824.50;;;13.95;44.05
48774;BME280;34576;0.000;0.000;2023-03-03T05:52:03;96828.22;;;12.75;43.66
48774;BME280;34576;0.000;0.000;2023-03-03T05:59:04;96842.41;;;14.32;45.86
48774;BME280;34576;0.000;0.000;2023-03-03T06:06:04;96832.78;;;15.03;49.52
48774;BME280;34576;0.000;0.000;2023-03-03T06:13:04;96836.63;;;15.17;51.06
48774;BME280;34576;0.000;0.000;2023-03-03T06:20:05;96836.41;;;15.24;52.54
48774;BME280;34576;0.000;0.000;2023-03-03T06:27:06;96835.66;;;15.29;54.54
48774;BME280;34576;0.000;0.000;2023-03-03T06:34:06;96837.84;;;15.37;55.00
48774;BME280;34576;0.000;0.000;2023-03-03T06:41:07;96842.41;;;15.47;55.79
48774;BME280;34576;0.000;0.000;2023-03-03T06:48:07;96842.69;;;15.50;56.24
48774;BME280;34576;0.000;0.000;2023-03-03T06:55:12;96844.59;;;15.55;56.55
48774;BME280;34576;0.000;0.000;2023-03-03T07:02:14;96854.69;;;15.58;57.37
48774;BME280;34576;0.000;0.000;2023-03-03T07:09:25;96864.00;;;15.61;57.62
48774;BME280;34576;0.000;0.000;2023-03-03T07:16:26;96866.41;;;15.62;57.83
48774;BME280;34576;0.000;0.000;2023-03-03T07:23:27;96869.84;;;15.63;58.02
48774;BME280;34576;0.000;0.000;2023-03-03T07:30:28;96881.00;;;15.65;58.35
48774;BME280;34576;0.000;0.000;2023-03-03T07:37:30;96890.00;;;15.64;58.66
48774;BME280;34576;0.000;0.000;2023-03-03T07:44:34;96886.31;;;15.65;58.67
48774;BME280;34576;0.000;0.000;2023-03-03T07:51:37;96896.91;;;15.65;58.71
48774;BME280;34576;0.000;0.000;2023-03-03T07:58:40;96901.13;;;15.66;58.80
48774;BME280;34576;0.000;0.000;2023-03-03T08:05:41;96908.56;;;15.64;58.92
48774;BME280;34576;0.000;0.000;2023-03-03T08:12:42;96913.06;;;15.63;59.10
48774;BME280;34576;0.000;0.000;2023-03-03T08:19:46;96916.53;;;15.64;58.88
48774;BME280;34576;0.000;0.000;2023-03-03T08:26:46;96916.78;;;15.62;59.17
48774;BME280;34576;0.000;0.000;2023-03-03T08:33:47;96921.25;;;15.62;59.01
48774;BME280;34576;0.000;0.000;2023-03-03T08:40:47;96914.38;;;15.61;59.08
48774;BME280;34576;0.000;0.000;2023-03-03T08:47:47;96915.44;;;15.60;59.33
48774;BME280;34576;0.000;0.000;2023-03-03T08:54:48;96917.53;;;15.58;59.31
48774;BME280;34576;0.000;0.000;2023-03-03T09:01:48;96914.63;;;15.59;59.42
48774;BME280;34576;0.000;0.000;2023-03-03T09:08:48;96918.59;;;15.57;59.30
48774;BME280;34576;0.000;0.000;2023-03-03T09:15:49;96921.25;;;15.57;59.33
48774;BME280;34576;0.000;0.000;2023-03-03T09:22:49;96923.06;;;15.56;59.45
48774;BME280;34576;0.000;0.000;2023-03-03T09:29:50;96922.53;;;15.54;59.28
48774;BME280;34576;0.000;0.000;2023-03-03T09:36:51;96917.22;;;15.54;59.38
48774;BME280;34576;0.000;0.000;2023-03-03T09:51:06;96922.53;;;15.54;59.45
48774;BME280;34576;0.000;0.000;2023-03-03T10:05:18;96919.63;;;15.56;59.37
48774;BME280;34576;0.000;0.000;2023-03-03T10:13:23;96931.28;;;15.54;59.25
48774;BME280;34576;0.000;0.000;2023-03-03T10:48:41;96923.38;;;15.60;59.18
48774;BME280;34576;0.000;0.000;2023-03-03T11:03:27;96925.50;;;15.58;59.37
48774;BME280;34576;0.000;0.000;2023-03-03T11:39:02;96908.50;;;15.59;59.44
48774;BME280;34576;0.000;0.000;2023-03-03T11:46:08;96899.50;;;15.60;59.37
48774;BME280;34576;0.000;0.000;2023-03-03T11:53:43;96904.03;;;15.59;59.55
48774;BME280;34576;0.000;0.000;2023-03-03T12:07:41;96901.13;;;15.61;59.45
48774;BME280;34576;0.000;0.000;2023-03-03T12:14:59;96892.09;;;15.62;59.51
48774;BME280;34576;0.000;0.000;2023-03-03T12:29:56;96884.69;;;15.64;59.61
48774;BME280;34576;0.000;0.000;2023-03-03T12:51:00;96867.75;;;15.65;59.69
48774;BME280;34576;0.000;0.000;2023-03-03T13:20:39;96856.56;;;15.63;59.68
48774;BME280;34576;0.000;0.000;2023-03-03T13:27:08;96860.00;;;15.63;59.50
48774;BME280;34576;0.000;0.000;2023-03-03T13:41:39;96858.19;;;15.64;59.70
48774;BME280;34576;0.000;0.000;2023-03-03T13:48:47;96852.88;;;15.64;59.69
48774;BME280;34576;0.000;0.000;2023-03-03T13:55:54;96852.88;;;15.64;59.73
48774;BME280;34576;0.000;0.000;2023-03-03T14:10:20;96844.38;;;15.62;59.50
48774;BME280;34576;0.000;0.000;2023-03-03T14:17:37;96846.22;;;15.61;59.48
48774;BME280;34576;0.000;0.000;2023-03-03T14:31:59;96832.44;;;15.64;59.57
48774;BME280;34576;0.000;0.000;2023-03-03T14:39:00;96842.28;;;15.64;59.54
48774;BME280;34576;0.000;0.000;2023-03-03T14:54:05;96837.50;;;15.66;59.69
48774;BME280;34576;0.000;0.000;2023-03-03T15:00:40;96835.91;;;15.65;59.66
48774;BME280;34576;0.000;0.000;2023-03-03T15:07:41;96836.97;;;15.64;59.78
48774;BME280;34576;0.000;0.000;2023-03-03T15:14:42;96836.97;;;15.64;59.62
48774;BME280;34576;0.000;0.000;2023-03-03T15:22:03;96830.84;;;15.63;59.81
48774;BME280;34576;0.000;0.000;2023-03-03T15:29:08;96823.72;;;15.64;59.69
48774;BME280;34576;0.000;0.000;2023-03-03T15:57:36;96840.66;;;15.63;59.68
48774;BME280;34576;0.000;0.000;2023-03-03T16:04:53;96839.88;;;15.62;59.54
48774;BME280;34576;0.000;0.000;2023-03-03T16:12:04;96845.97;;;15.63;59.62
48774;BME280;34576;0.000;0.000;2023-03-03T16:40:25;96880.19;;;15.64;59.22
48774;BME280;34576;0.000;0.000;2023-03-03T16:47:28;96894.50;;;15.63;59.13
48774;BME280;34576;0.000;0.000;2023-03-03T16:54:35;96904.31;;;15.63;59.29
48774;BME280;34576;0.000;0.000;2023-03-03T17:09:25;96926.28;;;15.58;59.22
48774;BME280;34576;0.000;0.000;2023-03-03T17:23:40;96933.94;;;15.54;59.13
48774;BME280;34576;0.000;0.000;2023-03-03T17:30:44;96941.88;;;15.54;58.96
48774;BME280;34576;0.000;0.000;2023-03-03T17:38:01;96941.09;;;15.54;59.10
48774;BME280;34576;0.000;0.000;2023-03-03T17:45:13;96953.31;;;15.55;58.85
48774;BME280;34576;0.000;0.000;2023-03-03T17:52:31;96968.91;;;15.51;58.81
48774;BME280;34576;0.000;0.000;2023-03-03T18:14:21;96987.22;;;15.53;58.66
48774;BME280;34576;0.000;0.000;2023-03-03T18:21:29;96985.63;;;15.52;58.57
48774;BME280;34576;0.000;0.000;2023-03-03T18:28:35;96993.81;;;15.50;58.30
48774;BME280;34576;0.000;0.000;2023-03-03T18:35:37;96998.63;;;15.53;58.34
48774;BME280;34576;0.000;0.000;2023-03-03T18:42:39;97006.59;;;15.53;58.21
48774;BME280;34576;0.000;0.000;2023-03-03T19:17:50;97019.78;;;15.48;58.31
48774;BME280;34576;0.000;0.000;2023-03-03T19:25:52;97027.22;;;15.46;58.12
48774;BME280;34576;0.000;0.000;2023-03-03T20:09:02;97045.00;;;15.51;57.97
48774;BME280;34576;0.000;0.000;2023-03-03T20:17:04;97056.22;;;15.58;58.54
48774;BME280;34576;0.000;0.000;2023-03-03T21:06:20;97073.25;;;15.90;60.51
48774;BME280;34576;0.000;0.000;2023-03-03T21:20:32;97083.91;;;15.95;60.39
48774;BME280;34576;0.000;0.000;2023-03-03T21:27:33;97083.66;;;15.96;60.44
48774;BME280;34576;0.000;0.000;2023-03-03T21:34:36;97085.25;;;15.97;60.67
48774;BME280;34576;0.000;0.000;2023-03-03T21:41:50;97085.81;;;15.99;60.53
48774;BME280;34576;0.000;0.000;2023-03-03T21:48:52;97085.56;;;16.01;60.68
48774;BME280;34576;0.000;0.000;2023-03-03T21:55:52;97081.84;;;16.02;60.86
48774;BME280;34576;0.000;0.000;2023-03-03T22:02:52;97085.03;;;16.04;60.71
48774;BME280;34576;0.000;0.000;2023-03-03T22:09:54;97088.81;;;16.08;60.68
48774;BME280;34576;0.000;0.000;2023-03-03T22:16:54;97091.75;;;16.12;60.85
48774;BME280;34576;0.000;0.000;2023-03-03T22:23:55;97085.63;;;16.11;60.88
48774;BME280;34576;0.000;0.000;2023-03-03T22:30:55;97083.53;;;16.13;61.00
48774;BME280;34576;0.000;0.000;2023-03-03T22:37:56;97090.44;;;16.14;60.99
48774;BME280;34576;0.000;0.000;2023-03-03T22:44:56;97093.66;;;16.16;60.99
48774;BME280;34576;0.000;0.000;2023-03-03T22:51:56;97087.31;;;16.22;59.33
48774;BME280;34576;0.000;0.000;2023-03-03T22:58:57;97091.53;;;16.18;61.36
48774;BME280;34576;0.000;0.000;2023-03-03T23:05:58;97086.78;;;16.20;62.37
48774;BME280;34576;0.000;0.000;2023-03-03T23:12:58;97080.13;;;16.18;61.26
48774;BME280;34576;0.000;0.000;2023-03-03T23:19:59;97078.53;;;16.17;61.17
48774;BME280;34576;0.000;0.000;2023-03-03T23:26:59;97075.59;;;16.18;61.34
48774;BME280;34576;0.000;0.000;2023-03-03T23:34:00;97076.66;;;16.17;61.22
48774;BME280;34576;0.000;0.000;2023-03-03T23:41:00;97084.13;;;16.20;62.36
48774;BME280;34576;0.000;0.000;2023-03-03T23:48:00;97083.63;;;16.24;62.70
48774;BME280;34576;0.000;0.000;2023-03-03T23:55:01;97084.66;;;16.22;63.08
